sensor_id;sensor_type;location;lat;lon;timestamp;pressure;altitude;pressure_sealevel;temperature;humidity
77723;BME280;67811;42.656;23.394;2023-07-13T00:01:39;95320.81;;;21.09;55.83
77723;BME280;67811;42.656;23.394;2023-07-13T00:04:04;95307.94;;;21.11;55.30
77723;BME280;67811;42.656;23.394;2023-07-13T00:06:30;95314.78;;;21.19;55.01
77723;BME280;67811;42.656;23.394;2023-07-13T00:08:55;95307.09;;;21.27;54.57
77723;BME280;67811;42.656;23.394;2023-07-13T00:11:20;95309.91;;;21.33;54.26
77723;BME280;67811;42.656;23.394;2023-07-13T00:13:46;95304.75;;;21.31;54.26
77723;BME280;67811;42.656;23.394;2023-07-13T00:16:11;95306.72;;;21.36;54.02
77723;BME280;67811;42.656;23.394;2023-07-13T00:18:37;95310.81;;;21.38;54.03
77723;BME280;67811;42.656;23.394;2023-07-13T00:21:02;95308.50;;;21.47;53.52
77723;BME280;67811;42.656;23.394;2023-07-13T00:23:27;95303.44;;;21.50;53.71
77723;BME280;67811;42.656;23.394;2023-07-13T00:25:52;95305.41;;;21.55;53.52
77723;BME280;67811;42.656;23.394;2023-07-13T00:28:18;95296.97;;;21.51;53.70
77723;BME280;67811;42.656;23.394;2023-07-13T00:30:43;95292.22;;;21.25;54.98
77723;BME280;67811;42.656;23.394;2023-07-13T00:33:08;95291.59;;;21.01;55.92
77723;BME280;67811;42.656;23.394;2023-07-13T00:35:34;95293.31;;;20.90;56.48
77723;BME280;67811;42.656;23.394;2023-07-13T00:37:59;95296.56;;;20.92;56.57
77723;BME280;67811;42.656;23.394;2023-07-13T00:40:24;95290.19;;;20.82;57.21
77723;BME280;67811;42.656;23.394;2023-07-13T00:42:52;95292.38;;;20.68;57.62
77723;BME280;67811;42.656;23.394;2023-07-13T00:47:43;95297.75;;;20.39;59.18
77723;BME280;67811;42.656;23.394;2023-07-13T00:50:11;95294.16;;;20.34;59.67
77723;BME280;67811;42.656;23.394;2023-07-13T00:52:42;95289.59;;;20.34;59.84
77723;BME280;67811;42.656;23.394;2023-07-13T00:55:09;95302.44;;;20.44;59.95
77723;BME280;67811;42.656;23.394;2023-07-13T00:57:36;95298.91;;;20.43;60.08
77723;BME280;67811;42.656;23.394;2023-07-13T01:00:04;95284.06;;;20.41;60.35
77723;BME280;67811;42.656;23.394;2023-07-13T01:02:30;95283.63;;;20.32;60.83
77723;BME280;67811;42.656;23.394;2023-07-13T01:04:56;95280.50;;;20.23;60.71
77723;BME280;67811;42.656;23.394;2023-07-13T01:07:21;95275.41;;;20.10;61.00
77723;BME280;67811;42.656;23.394;2023-07-13T01:09:46;95281.69;;;20.16;61.64
77723;BME280;67811;42.656;23.394;2023-07-13T01:12:12;95281.06;;;20.25;61.19
77723;BME280;67811;42.656;23.394;2023-07-13T01:14:37;95279.63;;;20.46;61.22
77723;BME280;67811;42.656;23.394;2023-07-13T01:17:03;95281.44;;;20.58;59.96
77723;BME280;67811;42.656;23.394;2023-07-13T01:19:45;95280.63;;;20.57;60.21
77723;BME280;67811;42.656;23.394;2023-07-13T01:22:15;95281.69;;;20.73;57.93
77723;BME280;67811;42.656;23.394;2023-07-13T01:24:43;95284.84;;;20.53;58.47
77723;BME280;67811;42.656;23.394;2023-07-13T01:27:10;95278.81;;;20.46;58.69
77723;BME280;67811;42.656;23.394;2023-07-13T01:29:37;95285.66;;;20.25;59.22
77723;BME280;67811;42.656;23.394;2023-07-13T01:32:03;95285.69;;;20.13;60.05
77723;BME280;67811;42.656;23.394;2023-07-13T01:34:28;95284.22;;;20.06;59.76
77723;BME280;67811;42.656;23.394;2023-07-13T01:36:53;95273.81;;;19.97;60.43
77723;BME280;67811;42.656;23.394;2023-07-13T01:39:21;95278.84;;;19.94;60.91
77723;BME280;67811;42.656;23.394;2023-07-13T01:41:46;95288.22;;;19.91;61.07
77723;BME280;67811;42.656;23.394;2023-07-13T01:44:11;95280.84;;;19.87;61.08
77723;BME280;67811;42.656;23.394;2023-07-13T01:46:37;95284.59;;;19.86;61.58
77723;BME280;67811;42.656;23.394;2023-07-13T01:49:02;95282.63;;;19.81;61.80
77723;BME280;67811;42.656;23.394;2023-07-13T01:51:27;95284.13;;;19.77;61.82
77723;BME280;67811;42.656;23.394;2023-07-13T01:53:52;95282.75;;;19.74;62.01
77723;BME280;67811;42.656;23.394;2023-07-13T01:56:18;95275.16;;;19.71;62.27
77723;BME280;67811;42.656;23.394;2023-07-13T01:58:45;95275.63;;;19.68;62.32
77723;BME280;67811;42.656;23.394;2023-07-13T02:01:10;95269.56;;;19.61;62.85
77723;BME280;67811;42.656;23.394;2023-07-13T02:03:35;95273.41;;;19.65;62.63
77723;BME280;67811;42.656;23.394;2023-07-13T02:06:01;95276.25;;;19.59;62.91
77723;BME280;67811;42.656;23.394;2023-07-13T02:08:26;95284.78;;;19.67;62.70
77723;BME280;67811;42.656;23.394;2023-07-13T02:10:51;95286.38;;;19.80;62.30
77723;BME280;67811;42.656;23.394;2023-07-13T02:13:16;95289.72;;;19.87;61.98
77723;BME280;67811;42.656;23.394;2023-07-13T02:15:42;95275.97;;;19.72;62.31
77723;BME280;67811;42.656;23.394;2023-07-13T02:18:07;95289.06;;;19.80;62.57
77723;BME280;67811;42.656;23.394;2023-07-13T02:20:32;95283.94;;;19.79;62.34
77723;BME280;67811;42.656;23.394;2023-07-13T02:22:57;95281.44;;;19.77;62.23
77723;BME280;67811;42.656;23.394;2023-07-13T02:25:23;95281.13;;;19.73;62.42
77723;BME280;67811;42.656;23.394;2023-07-13T02:27:48;95281.25;;;19.67;62.64
77723;BME280;67811;42.656;23.394;2023-07-13T02:30:14;95289.78;;;19.64;62.76
77723;BME280;67811;42.656;23.394;2023-07-13T02:32:39;95291.16;;;19.55;62.80
77723;BME280;67811;42.656;23.394;2023-07-13T02:35:05;95295.97;;;19.53;62.96
77723;BME280;67811;42.656;23.394;2023-07-13T02:37:30;95295.50;;;19.44;63.70
77723;BME280;67811;42.656;23.394;2023-07-13T02:39:55;95299.25;;;19.43;63.37
77723;BME280;67811;42.656;23.394;2023-07-13T02:42:21;95292.81;;;19.44;63.65
77723;BME280;67811;42.656;23.394;2023-07-13T02:44:46;95295.63;;;19.37;63.34
77723;BME280;67811;42.656;23.394;2023-07-13T02:47:11;95296.09;;;19.34;63.86
77723;BME280;67811;42.656;23.394;2023-07-13T02:49:37;95293.41;;;19.34;63.46
77723;BME280;67811;42.656;23.394;2023-07-13T02:52:03;95294.13;;;19.18;64.24
77723;BME280;67811;42.656;23.394;2023-07-13T02:54:28;95300.53;;;19.40;63.43
77723;BME280;67811;42.656;23.394;2023-07-13T02:56:54;95296.78;;;19.41;63.05
77723;BME280;67811;42.656;23.394;2023-07-13T02:59:19;95299.00;;;19.56;62.59
77723;BME280;67811;42.656;23.394;2023-07-13T03:01:44;95297.59;;;19.54;62.99
77723;BME280;67811;42.656;23.394;2023-07-13T03:04:09;95295.84;;;19.71;62.52
77723;BME280;67811;42.656;23.394;2023-07-13T03:06:35;95303.69;;;19.61;62.85
77723;BME280;67811;42.656;23.394;2023-07-13T03:09:00;95303.69;;;19.72;62.12
77723;BME280;67811;42.656;23.394;2023-07-13T03:11:25;95295.47;;;19.91;66.57
77723;BME280;67811;42.656;23.394;2023-07-13T03:13:51;95303.97;;;19.99;62.07
77723;BME280;67811;42.656;23.394;2023-07-13T03:16:16;95308.13;;;20.19;63.53
77723;BME280;67811;42.656;23.394;2023-07-13T03:18:42;95304.03;;;20.57;61.52
77723;BME280;67811;42.656;23.394;2023-07-13T03:21:07;95309.22;;;20.46;59.81
77723;BME280;67811;42.656;23.394;2023-07-13T03:23:33;95305.63;;;20.00;61.38
77723;BME280;67811;42.656;23.394;2023-07-13T03:26:18;95308.78;;;19.97;61.66
77723;BME280;67811;42.656;23.394;2023-07-13T03:28:44;95307.53;;;19.65;62.49
77723;BME280;67811;42.656;23.394;2023-07-13T03:31:16;95312.09;;;19.64;63.07
77723;BME280;67811;42.656;23.394;2023-07-13T03:33:42;95309.16;;;19.54;63.46
77723;BME280;67811;42.656;23.394;2023-07-13T03:36:13;95310.22;;;19.77;62.98
77723;BME280;67811;42.656;23.394;2023-07-13T03:38:38;95314.25;;;20.03;62.46
77723;BME280;67811;42.656;23.394;2023-07-13T03:41:04;95306.81;;;20.33;62.18
77723;BME280;67811;42.656;23.394;2023-07-13T03:43:29;95318.81;;;20.42;61.72
77723;BME280;67811;42.656;23.394;2023-07-13T03:45:55;95304.03;;;20.57;60.58
77723;BME280;67811;42.656;23.394;2023-07-13T03:48:20;95310.69;;;20.54;60.53
77723;BME280;67811;42.656;23.394;2023-07-13T03:50:47;95304.94;;;20.34;60.79
77723;BME280;67811;42.656;23.394;2023-07-13T03:53:12;95298.91;;;20.15;61.47
77723;BME280;67811;42.656;23.394;2023-07-13T03:55:38;95304.25;;;19.86;62.83
77723;BME280;67811;42.656;23.394;2023-07-13T03:58:32;95313.59;;;19.72;63.49
77723;BME280;67811;42.656;23.394;2023-07-13T04:00:59;95310.00;;;19.66;64.05
77723;BME280;67811;42.656;23.394;2023-07-13T04:03:24;95308.47;;;19.70;63.88
77723;BME280;67811;42.656;23.394;2023-07-13T04:05:50;95314.44;;;19.72;63.85
77723;BME280;67811;42.656;23.394;2023-07-13T04:08:15;95315.34;;;19.90;63.98
77723;BME280;67811;42.656;23.394;2023-07-13T04:10:41;95312.19;;;20.21;63.06
77723;BME280;67811;42.656;23.394;2023-07-13T04:13:06;95303.94;;;20.51;61.64
77723;BME280;67811;42.656;23.394;2023-07-13T04:15:32;95304.31;;;20.72;61.13
77723;BME280;67811;42.656;23.394;2023-07-13T04:17:58;95306.13;;;20.83;60.52
77723;BME280;67811;42.656;23.394;2023-07-13T04:20:27;95309.25;;;20.63;60.73
77723;BME280;67811;42.656;23.394;2023-07-13T04:22:52;95320.25;;;20.90;60.35
77723;BME280;67811;42.656;23.394;2023-07-13T04:25:18;95318.91;;;21.38;59.41
77723;BME280;67811;42.656;23.394;2023-07-13T04:27:43;95330.25;;;21.79;58.00
77723;BME280;67811;42.656;23.394;2023-07-13T04:30:09;95323.31;;;22.05;58.00
77723;BME280;67811;42.656;23.394;2023-07-13T04:32:34;95314.91;;;22.01;57.08
77723;BME280;67811;42.656;23.394;2023-07-13T04:34:59;95317.34;;;22.03;56.82
77723;BME280;67811;42.656;23.394;2023-07-13T04:37:26;95321.44;;;22.05;57.12
77723;BME280;67811;42.656;23.394;2023-07-13T04:39:52;95320.47;;;22.12;57.38
77723;BME280;67811;42.656;23.394;2023-07-13T04:42:17;95328.03;;;22.58;56.04
77723;BME280;67811;42.656;23.394;2023-07-13T04:44:48;95326.56;;;23.00;54.87
77723;BME280;67811;42.656;23.394;2023-07-13T04:47:13;95331.94;;;23.27;54.28
77723;BME280;67811;42.656;23.394;2023-07-13T04:49:39;95329.31;;;23.37;54.25
77723;BME280;67811;42.656;23.394;2023-07-13T04:52:05;95328.13;;;23.60;53.04
77723;BME280;67811;42.656;23.394;2023-07-13T04:54:30;95329.88;;;23.39;53.55
77723;BME280;67811;42.656;23.394;2023-07-13T04:56:56;95333.59;;;23.01;53.99
77723;BME280;67811;42.656;23.394;2023-07-13T04:59:21;95329.50;;;22.44;55.29
77723;BME280;67811;42.656;23.394;2023-07-13T05:01:46;95346.16;;;22.14;57.08
77723;BME280;67811;42.656;23.394;2023-07-13T05:04:11;95350.41;;;22.10;57.81
77723;BME280;67811;42.656;23.394;2023-07-13T05:06:37;95340.91;;;22.29;57.68
77723;BME280;67811;42.656;23.394;2023-07-13T05:09:02;95345.38;;;22.41;57.16
77723;BME280;67811;42.656;23.394;2023-07-13T05:11:28;95347.25;;;22.40;57.28
77723;BME280;67811;42.656;23.394;2023-07-13T05:13:53;95344.44;;;22.30;57.61
77723;BME280;67811;42.656;23.394;2023-07-13T05:16:19;95348.78;;;22.31;57.39
77723;BME280;67811;42.656;23.394;2023-07-13T05:18:44;95354.81;;;22.38;57.92
77723;BME280;67811;42.656;23.394;2023-07-13T05:21:10;95369.16;;;22.66;56.65
77723;BME280;67811;42.656;23.394;2023-07-13T05:23:37;95357.88;;;22.96;55.97
77723;BME280;67811;42.656;23.394;2023-07-13T05:26:03;95352.63;;;23.11;55.62
77723;BME280;67811;42.656;23.394;2023-07-13T05:28:30;95358.88;;;23.17;55.69
77723;BME280;67811;42.656;23.394;2023-07-13T05:30:56;95355.00;;;23.39;54.63
77723;BME280;67811;42.656;23.394;2023-07-13T05:33:21;95351.19;;;23.62;54.58
77723;BME280;67811;42.656;23.394;2023-07-13T05:35:47;95349.38;;;23.78;53.64
77723;BME280;67811;42.656;23.394;2023-07-13T05:38:12;95349.75;;;23.92;53.29
77723;BME280;67811;42.656;23.394;2023-07-13T05:40:37;95360.16;;;24.15;52.25
77723;BME280;67811;42.656;23.394;2023-07-13T05:43:03;95358.56;;;24.25;51.93
77723;BME280;67811;42.656;23.394;2023-07-13T05:45:28;95360.97;;;24.21;52.13
77723;BME280;67811;42.656;23.394;2023-07-13T05:47:53;95360.69;;;24.12;52.04
77723;BME280;67811;42.656;23.394;2023-07-13T05:50:18;95354.72;;;24.15;52.13
77723;BME280;67811;42.656;23.394;2023-07-13T05:52:44;95357.66;;;24.04;52.36
77723;BME280;67811;42.656;23.394;2023-07-13T05:55:09;95355.63;;;24.31;51.87
77723;BME280;67811;42.656;23.394;2023-07-13T05:57:34;95361.22;;;24.82;51.31
77723;BME280;67811;42.656;23.394;2023-07-13T05:59:59;95359.16;;;25.20;50.35
77723;BME280;67811;42.656;23.394;2023-07-13T06:02:25;95364.31;;;25.62;47.94
77723;BME280;67811;42.656;23.394;2023-07-13T06:04:50;95353.19;;;25.89;47.97
77723;BME280;67811;42.656;23.394;2023-07-13T06:07:15;95348.28;;;25.91;47.76
77723;BME280;67811;42.656;23.394;2023-07-13T06:09:40;95346.66;;;25.95;46.76
77723;BME280;67811;42.656;23.394;2023-07-13T06:12:06;95338.06;;;26.53;46.03
77723;BME280;67811;42.656;23.394;2023-07-13T06:14:31;95341.44;;;26.84;45.27
77723;BME280;67811;42.656;23.394;2023-07-13T06:16:57;95348.13;;;27.07;45.48
77723;BME280;67811;42.656;23.394;2023-07-13T06:19:22;95347.72;;;27.24;44.75
77723;BME280;67811;42.656;23.394;2023-07-13T06:21:47;95349.53;;;27.39;44.72
77723;BME280;67811;42.656;23.394;2023-07-13T06:24:13;95348.22;;;27.65;43.49
77723;BME280;67811;42.656;23.394;2023-07-13T06:26:38;95355.75;;;27.78;43.96
77723;BME280;67811;42.656;23.394;2023-07-13T06:29:03;95354.91;;;27.83;43.23
77723;BME280;67811;42.656;23.394;2023-07-13T06:31:32;95350.63;;;28.01;42.61
77723;BME280;67811;42.656;23.394;2023-07-13T06:33:57;95347.38;;;27.99;41.72
77723;BME280;67811;42.656;23.394;2023-07-13T06:36:22;95351.44;;;28.01;42.02
77723;BME280;67811;42.656;23.394;2023-07-13T06:38:48;95345.94;;;28.06;41.26
77723;BME280;67811;42.656;23.394;2023-07-13T06:41:13;95352.25;;;28.02;41.10
77723;BME280;67811;42.656;23.394;2023-07-13T06:43:38;95337.91;;;28.20;41.77
77723;BME280;67811;42.656;23.394;2023-07-13T06:46:04;95350.59;;;28.30;42.26
77723;BME280;67811;42.656;23.394;2023-07-13T06:48:29;95345.53;;;28.66;40.99
77723;BME280;67811;42.656;23.394;2023-07-13T06:50:54;95338.09;;;28.96;40.12
77723;BME280;67811;42.656;23.394;2023-07-13T06:53:20;95344.56;;;29.00;39.98
77723;BME280;67811;42.656;23.394;2023-07-13T06:55:46;95338.13;;;29.28;38.98
77723;BME280;67811;42.656;23.394;2023-07-13T06:58:12;95334.50;;;29.33;38.62
77723;BME280;67811;42.656;23.394;2023-07-13T07:00:38;95340.66;;;29.06;39.69
77723;BME280;67811;42.656;23.394;2023-07-13T07:03:03;95344.72;;;29.08;40.34
77723;BME280;67811;42.656;23.394;2023-07-13T07:05:28;95339.91;;;29.57;40.03
77723;BME280;67811;42.656;23.394;2023-07-13T07:07:54;95346.09;;;29.44;39.47
77723;BME280;67811;42.656;23.394;2023-07-13T07:10:20;95342.34;;;29.72;39.56
77723;BME280;67811;42.656;23.394;2023-07-13T07:12:46;95347.69;;;30.10;39.11
77723;BME280;67811;42.656;23.394;2023-07-13T07:15:11;95343.59;;;30.26;38.62
77723;BME280;67811;42.656;23.394;2023-07-13T07:17:37;95348.06;;;30.22;38.68
77723;BME280;67811;42.656;23.394;2023-07-13T07:20:03;95338.75;;;30.51;37.85
77723;BME280;67811;42.656;23.394;2023-07-13T07:22:29;95342.09;;;30.34;37.79
77723;BME280;67811;42.656;23.394;2023-07-13T07:24:54;95341.88;;;30.44;37.51
77723;BME280;67811;42.656;23.394;2023-07-13T07:27:20;95337.44;;;30.34;38.28
77723;BME280;67811;42.656;23.394;2023-07-13T07:29:45;95335.50;;;29.88;38.41
77723;BME280;67811;42.656;23.394;2023-07-13T07:32:11;95345.31;;;30.22;38.98
77723;BME280;67811;42.656;23.394;2023-07-13T07:34:36;95343.47;;;30.59;38.02
77723;BME280;67811;42.656;23.394;2023-07-13T07:37:02;95330.97;;;31.08;37.62
77723;BME280;67811;42.656;23.394;2023-07-13T07:39:27;95325.16;;;31.90;36.59
77723;BME280;67811;42.656;23.394;2023-07-13T07:41:53;95330.06;;;31.80;36.07
77723;BME280;67811;42.656;23.394;2023-07-13T07:44:18;95318.56;;;31.46;35.17
77723;BME280;67811;42.656;23.394;2023-07-13T07:46:44;95321.09;;;30.84;35.78
77723;BME280;67811;42.656;23.394;2023-07-13T07:49:09;95319.63;;;31.37;35.97
77723;BME280;67811;42.656;23.394;2023-07-13T07:51:34;95311.59;;;31.04;34.12
77723;BME280;67811;42.656;23.394;2023-07-13T07:53:59;95318.44;;;29.97;35.92
77723;BME280;67811;42.656;23.394;2023-07-13T07:56:25;95323.81;;;29.36;37.63
77723;BME280;67811;42.656;23.394;2023-07-13T07:58:50;95322.63;;;29.43;37.11
77723;BME280;67811;42.656;23.394;2023-07-13T08:01:15;95322.38;;;29.90;36.94
77723;BME280;67811;42.656;23.394;2023-07-13T08:03:41;95314.63;;;30.53;35.60
77723;BME280;67811;42.656;23.394;2023-07-13T08:06:06;95307.22;;;30.53;36.68
77723;BME280;67811;42.656;23.394;2023-07-13T08:08:31;95300.53;;;31.09;35.81
77723;BME280;67811;42.656;23.394;2023-07-13T08:10:56;95291.03;;;31.07;36.41
77723;BME280;67811;42.656;23.394;2023-07-13T08:13:22;95292.94;;;30.84;37.05
77723;BME280;67811;42.656;23.394;2023-07-13T08:15:47;95286.00;;;30.86;37.11
77723;BME280;67811;42.656;23.394;2023-07-13T08:18:12;95284.78;;;31.29;36.70
77723;BME280;67811;42.656;23.394;2023-07-13T08:20:38;95282.38;;;31.58;37.00
77723;BME280;67811;42.656;23.394;2023-07-13T08:23:04;95280.50;;;32.30;35.26
77723;BME280;67811;42.656;23.394;2023-07-13T08:25:29;95282.44;;;32.29;33.88
77723;BME280;67811;42.656;23.394;2023-07-13T08:27:55;95275.28;;;32.11;34.06
77723;BME280;67811;42.656;23.394;2023-07-13T08:30:20;95273.66;;;32.10;35.33
77723;BME280;67811;42.656;23.394;2023-07-13T08:32:45;95274.72;;;32.31;33.72
77723;BME280;67811;42.656;23.394;2023-07-13T08:35:11;95270.47;;;32.65;33.58
77723;BME280;67811;42.656;23.394;2023-07-13T08:37:36;95271.13;;;33.40;31.63
77723;BME280;67811;42.656;23.394;2023-07-13T08:40:01;95269.22;;;33.14;31.46
77723;BME280;67811;42.656;23.394;2023-07-13T08:42:37;95263.75;;;32.97;32.65
77723;BME280;67811;42.656;23.394;2023-07-13T08:48:05;95264.69;;;34.08;30.01
77723;BME280;67811;42.656;23.394;2023-07-13T08:50:39;95264.84;;;33.22;30.61
77723;BME280;67811;42.656;23.394;2023-07-13T08:53:10;95261.16;;;32.92;32.47
77723;BME280;67811;42.656;23.394;2023-07-13T08:55:37;95260.97;;;32.88;31.66
77723;BME280;67811;42.656;23.394;2023-07-13T08:58:12;95269.72;;;33.25;31.25
77723;BME280;67811;42.656;23.394;2023-07-13T09:00:56;95267.56;;;34.21;31.30
77723;BME280;67811;42.656;23.394;2023-07-13T09:03:28;95272.47;;;35.16;29.69
77723;BME280;67811;42.656;23.394;2023-07-13T09:05:58;95276.19;;;35.74;28.65
77723;BME280;67811;42.656;23.394;2023-07-13T09:08:47;95282.72;;;35.70;28.05
77723;BME280;67811;42.656;23.394;2023-07-13T09:17:12;95297.97;;;35.55;28.61
77723;BME280;67811;42.656;23.394;2023-07-13T09:19:40;95294.09;;;36.01;27.91
77723;BME280;67811;42.656;23.394;2023-07-13T09:22:11;95288.22;;;36.15;27.49
77723;BME280;67811;42.656;23.394;2023-07-13T09:24:50;95289.91;;;36.40;27.28
77723;BME280;67811;42.656;23.394;2023-07-13T09:27:18;95286.28;;;36.03;27.64
77723;BME280;67811;42.656;23.394;2023-07-13T09:29:55;95288.78;;;36.54;27.31
77723;BME280;67811;42.656;23.394;2023-07-13T09:32:24;95289.31;;;36.84;27.76
77723;BME280;67811;42.656;23.394;2023-07-13T09:34:51;95280.56;;;36.70;26.55
77723;BME280;67811;42.656;23.394;2023-07-13T09:37:16;95282.06;;;37.32;27.11
77723;BME280;67811;42.656;23.394;2023-07-13T09:39:42;95283.69;;;37.33;26.10
77723;BME280;67811;42.656;23.394;2023-07-13T09:44:39;95283.97;;;37.56;25.67
77723;BME280;67811;42.656;23.394;2023-07-13T09:47:16;95284.25;;;37.66;25.23
77723;BME280;67811;42.656;23.394;2023-07-13T09:49:42;95276.31;;;37.93;25.29
77723;BME280;67811;42.656;23.394;2023-07-13T09:52:11;95272.50;;;37.69;24.62
77723;BME280;67811;42.656;23.394;2023-07-13T09:54:37;95261.69;;;37.64;25.11
77723;BME280;67811;42.656;23.394;2023-07-13T09:57:13;95257.50;;;37.70;25.63
77723;BME280;67811;42.656;23.394;2023-07-13T09:59:44;95253.63;;;37.87;25.71
77723;BME280;67811;42.656;23.394;2023-07-13T10:02:29;95254.97;;;38.09;25.29
77723;BME280;67811;42.656;23.394;2023-07-13T10:05:04;95260.72;;;38.32;24.91
77723;BME280;67811;42.656;23.394;2023-07-13T10:07:30;95244.34;;;38.59;24.01
77723;BME280;67811;42.656;23.394;2023-07-13T10:09:58;95245.16;;;38.43;24.14
77723;BME280;67811;42.656;23.394;2023-07-13T10:12:24;95236.22;;;38.18;24.06
77723;BME280;67811;42.656;23.394;2023-07-13T10:14:58;95234.72;;;38.53;23.32
77723;BME280;67811;42.656;23.394;2023-07-13T10:17:32;95240.50;;;38.63;23.51
77723;BME280;67811;42.656;23.394;2023-07-13T10:20:01;95239.03;;;38.69;23.65
77723;BME280;67811;42.656;23.394;2023-07-13T10:22:44;95237.47;;;38.53;23.43
77723;BME280;67811;42.656;23.394;2023-07-13T10:25:21;95243.16;;;38.60;22.78
77723;BME280;67811;42.656;23.394;2023-07-13T10:27:50;95239.75;;;38.82;23.14
77723;BME280;67811;42.656;23.394;2023-07-13T10:30:25;95230.34;;;38.87;22.52
77723;BME280;67811;42.656;23.394;2023-07-13T10:32:52;95225.28;;;39.08;23.10
77723;BME280;67811;42.656;23.394;2023-07-13T10:35:19;95218.13;;;38.72;23.56
77723;BME280;67811;42.656;23.394;2023-07-13T10:37:52;95222.72;;;38.64;22.85
77723;BME280;67811;42.656;23.394;2023-07-13T10:40:23;95227.09;;;38.49;23.05
77723;BME280;67811;42.656;23.394;2023-07-13T10:42:52;95213.88;;;38.74;22.93
77723;BME280;67811;42.656;23.394;2023-07-13T10:45:22;95211.50;;;38.10;23.01
77723;BME280;67811;42.656;23.394;2023-07-13T10:47:50;95209.75;;;37.86;23.69
77723;BME280;67811;42.656;23.394;2023-07-13T10:50:25;95212.50;;;38.33;23.31
77723;BME280;67811;42.656;23.394;2023-07-13T10:52:53;95205.00;;;38.69;22.84
77723;BME280;67811;42.656;23.394;2023-07-13T10:55:40;95184.63;;;38.42;22.01
77723;BME280;67811;42.656;23.394;2023-07-13T10:58:21;95184.09;;;38.36;22.89
77723;BME280;67811;42.656;23.394;2023-07-13T11:00:49;95184.63;;;38.77;23.24
77723;BME280;67811;42.656;23.394;2023-07-13T11:03:19;95187.47;;;39.00;20.37
77723;BME280;67811;42.656;23.394;2023-07-13T11:05:49;95163.44;;;38.85;18.92
77723;BME280;67811;42.656;23.394;2023-07-13T11:08:51;95171.13;;;38.95;18.88
77723;BME280;67811;42.656;23.394;2023-07-13T11:11:33;95157.94;;;39.27;18.07
77723;BME280;67811;42.656;23.394;2023-07-13T11:14:00;95162.56;;;39.19;16.59
77723;BME280;67811;42.656;23.394;2023-07-13T11:21:28;95149.84;;;38.99;16.76
77723;BME280;67811;42.656;23.394;2023-07-13T11:24:17;95147.53;;;39.20;18.60
77723;BME280;67811;42.656;23.394;2023-07-13T11:29:14;95152.44;;;39.50;18.85
77723;BME280;67811;42.656;23.394;2023-07-13T11:31:56;95150.63;;;39.81;17.13
77723;BME280;67811;42.656;23.394;2023-07-13T11:34:30;95142.09;;;39.93;16.62
77723;BME280;67811;42.656;23.394;2023-07-13T11:36:57;95137.84;;;39.99;16.78
77723;BME280;67811;42.656;23.394;2023-07-13T11:39:24;95150.69;;;39.84;16.07
77723;BME280;67811;42.656;23.394;2023-07-13T11:41:56;95140.88;;;39.90;16.19
77723;BME280;67811;42.656;23.394;2023-07-13T11:44:24;95133.06;;;39.73;16.55
77723;BME280;67811;42.656;23.394;2023-07-13T11:46:58;95135.03;;;39.95;16.89
77723;BME280;67811;42.656;23.394;2023-07-13T11:49:26;95138.81;;;39.84;16.23
77723;BME280;67811;42.656;23.394;2023-07-13T11:51:52;95127.66;;;39.61;16.40
77723;BME280;67811;42.656;23.394;2023-07-13T11:54:32;95128.34;;;39.54;16.95
77723;BME280;67811;42.656;23.394;2023-07-13T11:57:06;95131.50;;;39.52;16.92
77723;BME280;67811;42.656;23.394;2023-07-13T11:59:39;95126.22;;;39.67;17.29
77723;BME280;67811;42.656;23.394;2023-07-13T12:02:27;95114.31;;;39.89;17.09
77723;BME280;67811;42.656;23.394;2023-07-13T12:04:53;95113.38;;;39.59;17.66
77723;BME280;67811;42.656;23.394;2023-07-13T12:07:19;95107.72;;;39.29;17.71
77723;BME280;67811;42.656;23.394;2023-07-13T12:09:45;95107.91;;;39.00;17.80
77723;BME280;67811;42.656;23.394;2023-07-13T12:12:12;95114.34;;;39.24;17.25
77723;BME280;67811;42.656;23.394;2023-07-13T12:14:38;95102.16;;;39.51;17.65
77723;BME280;67811;42.656;23.394;2023-07-13T12:17:09;95107.84;;;39.82;17.31
77723;BME280;67811;42.656;23.394;2023-07-13T12:19:37;95093.22;;;39.85;17.92
77723;BME280;67811;42.656;23.394;2023-07-13T12:22:02;95092.13;;;39.66;18.19
77723;BME280;67811;42.656;23.394;2023-07-13T12:24:28;95088.91;;;38.99;18.03
77723;BME280;67811;42.656;23.394;2023-07-13T12:26:58;95079.28;;;38.73;18.88
77723;BME280;67811;42.656;23.394;2023-07-13T12:29:25;95078.97;;;38.59;18.13
77723;BME280;67811;42.656;23.394;2023-07-13T12:31:50;95078.25;;;38.43;18.88
77723;BME280;67811;42.656;23.394;2023-07-13T12:34:18;95075.78;;;38.57;18.94
77723;BME280;67811;42.656;23.394;2023-07-13T12:39:37;95061.72;;;38.46;18.37
77723;BME280;67811;42.656;23.394;2023-07-13T12:44:52;95063.03;;;37.66;21.56
77723;BME280;67811;42.656;23.394;2023-07-13T12:47:20;95060.50;;;36.86;22.10
77723;BME280;67811;42.656;23.394;2023-07-13T12:49:53;95054.31;;;36.89;23.07
77723;BME280;67811;42.656;23.394;2023-07-13T12:52:27;95055.06;;;36.74;22.29
77723;BME280;67811;42.656;23.394;2023-07-13T12:55:16;95045.31;;;36.92;21.51
77723;BME280;67811;42.656;23.394;2023-07-13T13:00:27;95051.56;;;36.89;22.27
77723;BME280;67811;42.656;23.394;2023-07-13T13:02:55;95047.03;;;36.68;23.03
77723;BME280;67811;42.656;23.394;2023-07-13T13:05:21;95046.66;;;36.54;22.05
77723;BME280;67811;42.656;23.394;2023-07-13T13:07:46;95045.91;;;36.57;22.79
77723;BME280;67811;42.656;23.394;2023-07-13T13:10:13;95033.84;;;36.22;22.99
77723;BME280;67811;42.656;23.394;2023-07-13T13:12:38;95040.16;;;36.62;23.11
77723;BME280;67811;42.656;23.394;2023-07-13T13:15:04;95025.19;;;36.91;22.21
77723;BME280;67811;42.656;23.394;2023-07-13T13:17:30;95028.69;;;37.20;22.09
77723;BME280;67811;42.656;23.394;2023-07-13T13:19:56;95026.47;;;37.26;21.52
77723;BME280;67811;42.656;23.394;2023-07-13T13:22:21;95022.16;;;36.68;23.04